createdAt,value
2018-02-21T00:01:51.147Z,79.57
2018-02-21T00:04:19.825Z,76.63
2018-02-21T00:06:48.527Z,89.75
2018-02-21T00:09:17.706Z,83.07
2018-02-21T00:11:46.393Z,79.62
2018-02-21T00:14:15.078Z,95.45
2018-02-21T00:16:43.654Z,89.40
2018-02-21T00:19:12.334Z,81.20
2018-02-21T00:21:41.094Z,79.53
2018-02-21T00:24:09.519Z,82.77
2018-02-21T00:26:38.028Z,79.97
2018-02-21T00:29:06.730Z,74.80
2018-02-21T00:31:36.101Z,85.87
2018-02-21T00:34:04.803Z,91.37
2018-02-21T00:36:33.489Z,86.70
2018-02-21T00:39:03.041Z,98.43
2018-02-21T00:41:32.272Z,91.17
2018-02-21T00:44:01.475Z,87.93
2018-02-21T00:46:30.649Z,96.47
2018-02-21T00:48:59.340Z,100.07
2018-02-21T00:51:27.757Z,90.80
2018-02-21T00:53:56.471Z,85.10
2018-02-21T00:56:25.249Z,85.55
2018-02-21T00:58:53.885Z,97.03
2018-02-21T01:01:22.293Z,97.70
2018-02-21T01:03:50.987Z,89.43
2018-02-21T01:06:19.848Z,102.00
2018-02-21T01:08:49.345Z,95.23
2018-02-21T01:11:18.032Z,104.85
2018-02-21T01:13:46.648Z,111.47
2018-02-21T01:16:15.065Z,93.47
2018-02-21T01:18:43.758Z,94.15
2018-02-21T01:21:12.446Z,100.00
2018-02-21T01:23:41.198Z,92.18
2018-02-21T01:26:10.430Z,108.18
2018-02-21T01:28:39.007Z,101.17
2018-02-21T01:31:07.436Z,95.53
2018-02-21T01:33:36.134Z,84.85
2018-02-21T01:36:04.593Z,100.93
2018-02-21T01:38:33.774Z,89.33
2018-02-21T01:41:02.468Z,106.97
2018-02-21T01:43:31.166Z,103.53
2018-02-21T01:45:59.841Z,85.62
2018-02-21T01:48:28.556Z,98.43
2018-02-21T01:50:56.965Z,96.13
2018-02-21T01:53:25.415Z,96.47
2018-02-21T01:55:54.110Z,109.28
2018-02-21T01:58:22.573Z,110.63
2018-02-21T02:00:50.999Z,101.30
2018-02-21T02:03:19.497Z,104.80
2018-02-21T02:05:48.193Z,103.07
2018-02-21T02:08:16.827Z,114.03
2018-02-21T02:10:45.254Z,107.00
2018-02-21T02:13:14.789Z,105.67
2018-02-21T02:15:43.413Z,90.50
2018-02-21T02:18:13.333Z,95.83
2018-02-21T02:20:41.761Z,102.65
2018-02-21T02:23:10.371Z,112.30
2018-02-21T02:25:38.978Z,108.60
2018-02-21T02:28:07.665Z,102.40
2018-02-21T02:30:36.094Z,98.40
2018-02-21T02:33:04.502Z,110.67
2018-02-21T02:35:33.255Z,114.93
2018-02-21T02:38:02.733Z,120.40
2018-02-21T02:40:31.323Z,103.67
2018-02-21T02:43:00.007Z,107.53
2018-02-21T02:45:29.482Z,107.30
2018-02-21T02:47:58.056Z,101.03
2018-02-21T02:50:26.758Z,112.88
2018-02-21T02:52:55.938Z,105.23
2018-02-21T02:55:24.376Z,109.67
2018-02-21T02:57:54.523Z,112.68
2018-02-21T03:00:23.219Z,115.93
2018-02-21T03:02:51.686Z,120.60
2018-02-21T03:05:20.098Z,110.40
2018-02-21T03:07:48.810Z,118.67
2018-02-21T03:10:17.226Z,101.50
2018-02-21T03:12:45.651Z,111.10
2018-02-21T03:15:15.138Z,114.00
2018-02-21T03:17:43.850Z,102.50
2018-02-21T03:20:12.281Z,110.50
2018-02-21T03:22:41.005Z,97.00
2018-02-21T03:25:09.620Z,115.30
2018-02-21T03:27:39.082Z,86.37
2018-02-21T03:30:08.366Z,103.07
2018-02-21T03:32:37.734Z,101.80
2018-02-21T03:35:06.294Z,104.60
2018-02-21T03:37:35.769Z,106.17
2018-02-21T03:40:04.331Z,100.10
2018-02-21T03:42:34.466Z,111.20
2018-02-21T03:45:03.094Z,90.40
2018-02-21T03:47:31.605Z,108.97
2018-02-21T03:50:00.021Z,106.90
2018-02-21T03:52:28.717Z,90.78
2018-02-21T03:54:57.133Z,115.40
2018-02-21T03:57:25.840Z,97.53
2018-02-21T03:59:54.589Z,105.47
2018-02-21T04:02:23.242Z,104.50
2018-02-21T04:04:52.468Z,95.70
2018-02-21T04:07:20.890Z,93.67
2018-02-21T04:09:50.289Z,105.60
2018-02-21T04:12:18.387Z,91.17
2018-02-21T04:14:47.064Z,90.37
2018-02-21T04:17:16.363Z,103.83
2018-02-21T04:19:45.039Z,82.25
2018-02-21T04:22:13.606Z,111.10
2018-02-21T04:24:42.205Z,99.87
2018-02-21T04:27:10.894Z,101.32
2018-02-21T04:29:39.314Z,97.23
2018-02-21T04:32:07.870Z,95.70
2018-02-21T04:34:37.041Z,86.80
2018-02-21T04:37:05.461Z,93.07
2018-02-21T04:39:34.558Z,91.20
2018-02-21T04:42:02.977Z,93.03
2018-02-21T04:44:31.393Z,82.50
2018-02-21T04:46:59.994Z,93.77
2018-02-21T04:49:28.409Z,86.53
2018-02-21T04:51:57.145Z,86.00
2018-02-21T04:54:26.910Z,91.40
2018-02-21T04:57:00.830Z,77.57
2018-02-21T04:59:34.802Z,99.00
2018-02-21T05:02:03.185Z,93.07
2018-02-21T05:04:31.713Z,84.15
2018-02-21T05:07:00.188Z,88.80
2018-02-21T05:09:28.591Z,75.53
2018-02-21T05:11:57.254Z,86.60
2018-02-21T05:14:26.646Z,77.37
2018-02-21T05:16:55.324Z,75.27
2018-02-21T05:19:23.742Z,71.97
2018-02-21T05:21:52.206Z,88.07
2018-02-21T05:24:20.894Z,94.00
2018-02-21T05:26:49.588Z,91.85
2018-02-21T05:29:18.777Z,105.13
2018-02-21T05:31:48.066Z,79.53
2018-02-21T05:34:16.493Z,83.13
2018-02-21T05:36:45.942Z,93.80
2018-02-21T05:39:14.370Z,96.23
2018-02-21T05:41:42.774Z,87.47
2018-02-21T05:44:11.490Z,90.90
2018-02-21T05:46:40.786Z,96.00
2018-02-21T05:49:10.202Z,86.10
2018-02-21T05:51:38.898Z,120.68
2018-02-21T05:54:07.766Z,101.83
2018-02-21T05:56:36.454Z,100.03
2018-02-21T05:59:05.853Z,117.43
2018-02-21T06:01:34.478Z,116.50
2018-02-21T06:04:02.914Z,134.53
2018-02-21T06:06:31.384Z,114.87
2018-02-21T06:08:59.797Z,115.13
2018-02-21T06:11:28.493Z,117.60
2018-02-21T06:13:57.815Z,115.97
2018-02-21T06:16:26.521Z,117.53
2018-02-21T06:18:54.936Z,119.93
2018-02-21T06:21:23.657Z,115.57
2018-02-21T06:23:52.065Z,112.47
2018-02-21T06:26:20.481Z,100.70
2018-02-21T06:28:49.181Z,121.00
2018-02-21T06:31:17.953Z,103.85
2018-02-21T06:33:47.340Z,105.00
2018-02-21T06:36:15.925Z,94.83
2018-02-21T06:38:45.950Z,111.83
2018-02-21T06:41:14.877Z,101.22
2018-02-21T06:43:43.533Z,92.80
2018-02-21T06:46:12.716Z,89.73
2018-02-21T06:48:41.890Z,94.67
2018-02-21T06:51:10.322Z,112.93
2018-02-21T06:53:39.194Z,101.18
2018-02-21T06:56:07.804Z,89.77
2018-02-21T06:58:36.402Z,101.47
2018-02-21T07:01:05.098Z,88.45
2018-02-21T07:03:33.787Z,91.87
2018-02-21T07:06:02.442Z,100.18
2018-02-21T07:08:32.145Z,91.25
2018-02-21T07:11:00.556Z,82.00
2018-02-21T07:13:28.977Z,87.53
2018-02-21T07:15:57.466Z,90.00
2018-02-21T07:18:26.166Z,105.18
2018-02-21T07:20:54.769Z,89.10
2018-02-21T07:23:23.491Z,102.13
2018-02-21T07:25:53.003Z,90.20
2018-02-21T07:28:21.732Z,83.57
2018-02-21T07:30:50.146Z,95.53
2018-02-21T07:33:19.541Z,92.63
2018-02-21T07:35:48.230Z,106.27
2018-02-21T07:38:16.922Z,84.35
2018-02-21T07:40:45.331Z,88.87
2018-02-21T07:43:14.526Z,108.90
2018-02-21T07:45:43.209Z,83.93
2018-02-21T07:48:11.894Z,96.17
2018-02-21T07:50:40.577Z,96.77
2018-02-21T07:53:09.870Z,89.47
2018-02-21T07:55:38.561Z,83.03
2018-02-21T07:58:06.961Z,82.60
2018-02-21T08:00:35.369Z,90.90
2018-02-21T08:03:03.733Z,94.40
2018-02-21T08:05:32.573Z,84.78
2018-02-21T08:08:01.883Z,103.07
2018-02-21T08:10:31.053Z,90.60
2018-02-21T08:12:59.743Z,81.30
2018-02-21T08:15:28.417Z,75.07
2018-02-21T08:17:57.117Z,79.90
2018-02-21T08:20:25.797Z,84.18
2018-02-21T08:22:55.143Z,79.87
2018-02-21T08:25:23.575Z,95.13
2018-02-21T08:27:52.052Z,85.67
2018-02-21T08:30:20.745Z,68.78
2018-02-21T08:32:49.438Z,91.60
2018-02-21T08:35:18.129Z,73.47
2018-02-21T08:37:47.466Z,94.93
2018-02-21T08:40:16.923Z,71.60
2018-02-21T08:42:45.327Z,84.50
2018-02-21T08:45:13.931Z,85.37
2018-02-21T08:47:43.386Z,88.80
2018-02-21T08:50:11.851Z,78.83
2018-02-21T08:52:40.264Z,83.83
2018-02-21T08:55:09.446Z,88.10
2018-02-21T08:57:38.134Z,87.32
2018-02-21T09:00:06.840Z,76.82
2018-02-21T09:02:35.667Z,87.10
2018-02-21T09:05:04.082Z,84.90
2018-02-21T09:07:32.494Z,80.97
2018-02-21T09:10:00.722Z,81.03
2018-02-21T09:12:29.248Z,84.83
2018-02-21T09:14:57.929Z,90.07
2018-02-21T09:17:26.665Z,79.77
2018-02-21T09:19:55.358Z,79.05
2018-02-21T09:22:23.762Z,81.30
2018-02-21T09:24:52.482Z,94.87
2018-02-21T09:27:21.929Z,86.10
2018-02-21T09:29:50.561Z,83.47
2018-02-21T09:32:18.969Z,70.20
2018-02-21T09:34:47.653Z,82.07
2018-02-21T09:37:16.259Z,87.53
2018-02-21T09:39:44.677Z,87.80
2018-02-21T09:42:13.279Z,93.03
2018-02-21T09:44:41.700Z,89.73
2018-02-21T09:47:10.370Z,79.87
2018-02-21T09:49:38.782Z,73.47
2018-02-21T09:52:07.975Z,73.00
2018-02-21T09:54:36.649Z,88.00
2018-02-21T09:57:05.503Z,80.22
2018-02-21T09:59:34.942Z,71.53
2018-02-21T10:02:03.623Z,82.10
2018-02-21T10:04:32.026Z,86.47
2018-02-21T10:07:01.027Z,69.32
2018-02-21T10:09:29.558Z,76.50
2018-02-21T10:11:58.266Z,82.50
2018-02-21T10:14:26.817Z,67.07
2018-02-21T10:16:55.522Z,69.63
2018-02-21T10:19:23.937Z,72.40
2018-02-21T10:21:52.622Z,82.87
2018-02-21T10:24:21.316Z,79.97
2018-02-21T10:26:50.273Z,69.40
2018-02-21T10:29:19.882Z,90.03
2018-02-21T10:31:48.564Z,76.50
2018-02-21T10:34:17.762Z,67.40
2018-02-21T10:36:46.454Z,81.47
2018-02-21T10:39:14.923Z,67.03
2018-02-21T10:41:43.341Z,81.20
2018-02-21T10:44:12.706Z,71.47
2018-02-21T10:46:41.954Z,73.32
2018-02-21T10:49:10.780Z,69.55
2018-02-21T10:51:39.476Z,85.75
2018-02-21T10:54:07.922Z,77.97
2018-02-21T10:56:36.337Z,75.00
2018-02-21T10:59:05.021Z,70.85
2018-02-21T11:01:33.438Z,70.33
2018-02-21T11:04:01.839Z,82.17
2018-02-21T11:06:30.776Z,75.53
2018-02-21T11:09:00.694Z,77.80
2018-02-21T11:11:29.161Z,75.37
2018-02-21T11:13:57.831Z,73.03
2018-02-21T11:16:26.245Z,75.90
2018-02-21T11:18:55.416Z,74.23
2018-02-21T11:21:23.873Z,75.63
2018-02-21T11:23:52.783Z,68.40
2018-02-21T11:26:21.294Z,79.82
2018-02-21T11:28:50.463Z,82.20
2018-02-21T11:31:19.180Z,70.68
2018-02-21T11:33:47.992Z,67.50
2018-02-21T11:36:17.452Z,72.10
2018-02-21T11:38:45.947Z,70.13
2018-02-21T11:41:15.162Z,81.60
2018-02-21T11:43:43.562Z,66.63
2018-02-21T11:46:11.975Z,73.83
2018-02-21T11:48:40.398Z,70.37
2018-02-21T11:51:08.866Z,70.90
2018-02-21T11:53:37.542Z,74.32
2018-02-21T11:56:06.252Z,80.50
2018-02-21T11:58:34.712Z,82.80
2018-02-21T12:01:03.882Z,76.97
2018-02-21T12:03:32.594Z,77.03
2018-02-21T12:06:01.293Z,92.30
2018-02-21T12:08:29.930Z,75.13
2018-02-21T12:10:58.348Z,81.17
2018-02-21T12:13:26.762Z,77.27
2018-02-21T12:15:55.181Z,77.57
2018-02-21T12:18:23.853Z,78.13
2018-02-21T12:20:52.531Z,77.13
2018-02-21T12:23:21.237Z,83.45
2018-02-21T12:25:50.517Z,79.57
2018-02-21T12:28:19.192Z,74.90
2018-02-21T12:30:47.423Z,61.33
2018-02-21T12:33:15.889Z,63.03
2018-02-21T12:35:44.311Z,68.80
2018-02-21T12:38:13.036Z,68.83
2018-02-21T12:40:47.029Z,67.03
2018-02-21T12:43:15.434Z,72.13
2018-02-21T12:45:44.126Z,81.07
2018-02-21T12:48:13.298Z,72.00
2018-02-21T12:50:41.741Z,69.83
2018-02-21T12:53:09.924Z,77.20
2018-02-21T12:55:39.553Z,75.03
2018-02-21T12:58:08.241Z,76.12
2018-02-21T13:00:36.981Z,75.23
2018-02-21T13:03:05.574Z,69.67
2018-02-21T13:05:33.933Z,80.68
2018-02-21T13:08:02.334Z,78.83
2018-02-21T13:10:31.014Z,75.68
2018-02-21T13:12:59.430Z,66.10
2018-02-21T13:15:28.126Z,64.43
2018-02-21T13:17:57.294Z,66.87
2018-02-21T13:20:26.022Z,68.40
2018-02-21T13:22:54.438Z,70.73
2018-02-21T13:25:23.124Z,69.03
2018-02-21T13:27:51.797Z,68.82
2018-02-21T13:30:21.276Z,66.83
2018-02-21T13:32:49.953Z,78.93
2018-02-21T13:35:19.136Z,76.73
2018-02-21T13:37:48.355Z,76.20
2018-02-21T13:40:17.218Z,70.07
2018-02-21T13:42:45.905Z,73.80
2018-02-21T13:45:14.582Z,78.85
2018-02-21T13:47:43.263Z,72.67
2018-02-21T13:50:11.694Z,82.23
2018-02-21T13:52:40.117Z,74.90
2018-02-21T13:55:08.522Z,84.03
2018-02-21T13:57:37.097Z,72.13
2018-02-21T14:00:06.277Z,75.87
2018-02-21T14:02:34.973Z,72.78
2018-02-21T14:05:03.401Z,72.33
2018-02-21T14:07:31.965Z,64.83
2018-02-21T14:10:00.654Z,73.45
2018-02-21T14:12:29.072Z,71.73
2018-02-21T14:14:57.485Z,74.90
2018-02-21T14:17:26.859Z,72.10
2018-02-21T14:19:55.545Z,85.77
2018-02-21T14:22:23.986Z,79.43
2018-02-21T14:24:52.573Z,77.57
2018-02-21T14:27:22.023Z,72.95
2018-02-21T14:29:51.291Z,76.83
2018-02-21T14:32:19.698Z,79.63
2018-02-21T14:34:48.402Z,68.27
2018-02-21T14:37:17.734Z,88.10
2018-02-21T14:39:46.154Z,83.37
2018-02-21T14:42:14.834Z,83.75
2018-02-21T14:44:43.792Z,78.82
2018-02-21T14:47:13.294Z,73.40
2018-02-21T14:49:41.734Z,77.63
2018-02-21T14:52:10.406Z,80.25
2018-02-21T14:54:38.974Z,84.03
2018-02-21T14:57:07.518Z,90.17
2018-02-21T14:59:35.942Z,79.00
2018-02-21T15:02:04.347Z,78.83
2018-02-21T15:04:33.047Z,82.25
2018-02-21T15:07:01.610Z,76.93
2018-02-21T15:09:30.229Z,76.70
2018-02-21T15:11:58.402Z,77.40
2018-02-21T15:14:27.853Z,74.50
2018-02-21T15:16:56.533Z,80.57
2018-02-21T15:19:25.240Z,69.78
2018-02-21T15:21:53.921Z,76.00
2018-02-21T15:24:22.624Z,83.90
2018-02-21T15:26:51.205Z,73.53
2018-02-21T15:29:19.778Z,75.53
2018-02-21T15:31:48.454Z,79.70
2018-02-21T15:34:17.049Z,84.17
2018-02-21T15:36:46.217Z,79.20
2018-02-21T15:39:14.633Z,78.73
2018-02-21T15:41:43.313Z,76.72
2018-02-21T15:44:12.485Z,92.77
2018-02-21T15:46:40.707Z,69.50
2018-02-21T15:49:10.157Z,81.77
2018-02-21T15:51:38.872Z,76.30
2018-02-21T15:54:07.567Z,81.03
2018-02-21T15:56:36.060Z,73.70
2018-02-21T15:59:04.471Z,80.73
2018-02-21T16:01:32.918Z,72.97
2018-02-21T16:04:01.646Z,72.90
2018-02-21T16:06:30.085Z,78.30
2018-02-21T16:08:58.496Z,72.70
2018-02-21T16:11:27.143Z,91.70
2018-02-21T16:13:55.938Z,91.53
2018-02-21T16:16:25.234Z,82.77
2018-02-21T16:18:53.818Z,82.83
2018-02-21T16:21:23.283Z,82.27
2018-02-21T16:23:52.450Z,92.83
2018-02-21T16:26:20.875Z,81.23
2018-02-21T16:28:49.436Z,89.73
2018-02-21T16:31:17.936Z,88.30
2018-02-21T16:33:46.629Z,93.65
2018-02-21T16:36:15.039Z,90.23
2018-02-21T16:38:43.474Z,82.53
2018-02-21T16:41:14.030Z,90.00
2018-02-21T16:43:42.645Z,101.37
2018-02-21T16:46:11.326Z,93.43
2018-02-21T16:48:39.809Z,87.20
2018-02-21T16:51:08.221Z,84.97
2018-02-21T16:53:37.420Z,97.13
2018-02-21T16:56:06.101Z,100.45
2018-02-21T16:58:35.643Z,82.27
2018-02-21T17:01:05.103Z,89.45
2018-02-21T17:03:34.302Z,91.40
2018-02-21T17:06:02.805Z,84.33
2018-02-21T17:08:31.528Z,83.67
2018-02-21T17:10:59.933Z,88.47
2018-02-21T17:13:28.366Z,81.37
2018-02-21T17:15:57.835Z,85.45
2018-02-21T17:18:26.405Z,90.73
2018-02-21T17:20:55.588Z,103.80
2018-02-21T17:23:24.017Z,90.17
2018-02-21T17:25:53.465Z,75.97
2018-02-21T17:28:21.890Z,90.53
2018-02-21T17:30:50.301Z,70.17
2018-02-21T17:33:19.003Z,88.25
2018-02-21T17:35:47.419Z,94.90
2018-02-21T17:38:16.625Z,92.77
2018-02-21T17:40:50.243Z,95.93
2018-02-21T17:43:18.694Z,101.10
2018-02-21T17:45:47.616Z,89.57
2018-02-21T17:48:16.241Z,92.17
2018-02-21T17:50:44.828Z,86.87
2018-02-21T17:53:13.254Z,87.90
2018-02-21T17:55:41.902Z,92.43
2018-02-21T17:58:10.329Z,96.87
2018-02-21T18:00:38.935Z,86.43
2018-02-21T18:03:07.357Z,106.90
2018-02-21T18:05:36.738Z,89.87
2018-02-21T18:08:05.431Z,82.43
2018-02-21T18:10:34.952Z,91.77
2018-02-21T18:13:03.632Z,94.87
2018-02-21T18:15:32.162Z,87.13
2018-02-21T18:18:00.582Z,85.93
2018-02-21T18:20:29.300Z,100.97
2018-02-21T18:22:57.701Z,83.40
2018-02-21T18:25:26.156Z,95.87
2018-02-21T18:27:54.633Z,91.40
2018-02-21T18:30:24.189Z,102.67
2018-02-21T18:32:52.597Z,97.03
2018-02-21T18:35:21.321Z,99.90
2018-02-21T18:37:49.748Z,98.83
2018-02-21T18:40:18.211Z,102.93
2018-02-21T18:42:46.701Z,113.77
2018-02-21T18:45:15.125Z,95.40
2018-02-21T18:47:43.749Z,102.07
2018-02-21T18:50:13.676Z,93.17
2018-02-21T18:52:42.361Z,98.45
2018-02-21T18:55:11.079Z,102.47
2018-02-21T18:57:39.511Z,90.73
2018-02-21T19:00:07.925Z,98.10
2018-02-21T19:02:36.624Z,85.80
2018-02-21T19:05:05.126Z,108.07
2018-02-21T19:07:33.540Z,100.00
2018-02-21T19:10:02.251Z,107.20
2018-02-21T19:12:30.786Z,96.20
2018-02-21T19:14:59.215Z,104.73
2018-02-21T19:17:27.694Z,133.53
2018-02-21T19:19:56.402Z,147.70
2018-02-21T19:22:24.810Z,153.33
2018-02-21T19:24:54.270Z,123.53
2018-02-21T19:27:22.967Z,125.70
2018-02-21T19:29:52.350Z,104.17
2018-02-21T19:32:21.527Z,93.27
2018-02-21T19:34:49.762Z,78.93
2018-02-21T19:37:18.223Z,87.93
2018-02-21T19:39:46.898Z,74.13
2018-02-21T19:42:15.753Z,69.43
2018-02-21T19:44:44.383Z,80.80
2018-02-21T19:47:12.873Z,78.33
2018-02-21T19:49:41.574Z,69.57
2018-02-21T19:52:10.353Z,63.20
2018-02-21T19:54:39.263Z,76.57
2018-02-21T19:57:08.031Z,60.47
2018-02-21T19:59:36.641Z,75.27
2018-02-21T20:02:05.254Z,61.27
2018-02-21T20:04:33.757Z,73.77
2018-02-21T20:07:02.457Z,67.90
2018-02-21T20:09:31.195Z,74.60
2018-02-21T20:11:59.645Z,63.47
2018-02-21T20:14:28.397Z,78.00
2018-02-21T20:16:57.867Z,70.72
2018-02-21T20:19:27.057Z,69.17
2018-02-21T20:21:56.047Z,69.25
2018-02-21T20:24:25.443Z,66.50
2018-02-21T20:26:54.145Z,72.10
2018-02-21T20:29:22.921Z,67.20
2018-02-21T20:31:51.411Z,66.33
2018-02-21T20:34:20.591Z,61.27
2018-02-21T20:36:49.004Z,64.40
2018-02-21T20:39:18.178Z,73.07
2018-02-21T20:41:46.597Z,73.17
2018-02-21T20:44:15.307Z,72.60
2018-02-21T20:46:44.001Z,77.07
2018-02-21T20:49:12.452Z,77.20
2018-02-21T20:51:40.874Z,82.30
2018-02-21T20:54:10.041Z,72.77
2018-02-21T20:56:38.508Z,71.70
2018-02-21T20:59:06.922Z,76.10
2018-02-21T21:01:35.342Z,76.60
2018-02-21T21:04:03.962Z,75.70
2018-02-21T21:06:33.422Z,77.73
2018-02-21T21:09:02.112Z,72.80
2018-02-21T21:11:31.482Z,78.50
2018-02-21T21:14:00.170Z,86.03
2018-02-21T21:16:29.494Z,82.60
2018-02-21T21:18:58.154Z,71.73
2018-02-21T21:21:26.846Z,85.05
2018-02-21T21:23:55.448Z,76.13
2018-02-21T21:26:24.336Z,82.97
2018-02-21T21:28:52.950Z,94.77
2018-02-21T21:31:22.210Z,85.70
2018-02-21T21:33:51.470Z,90.53
2018-02-21T21:36:19.994Z,97.20
2018-02-21T21:38:49.193Z,87.80
2018-02-21T21:41:18.370Z,94.97
2018-02-21T21:43:47.077Z,99.80
2018-02-21T21:46:15.673Z,98.77
2018-02-21T21:48:44.362Z,82.23
2018-02-21T21:51:12.918Z,98.17
2018-02-21T21:53:41.626Z,90.07
2018-02-21T21:56:10.305Z,93.72
2018-02-21T21:58:38.866Z,81.83
2018-02-21T22:01:08.049Z,89.70
2018-02-21T22:03:36.469Z,101.10
2018-02-21T22:06:04.879Z,93.40
2018-02-21T22:08:33.324Z,92.47
2018-02-21T22:11:01.733Z,107.10
2018-02-21T22:13:30.461Z,100.23
2018-02-21T22:15:59.656Z,89.00
2018-02-21T22:18:28.079Z,105.37
2018-02-21T22:20:56.606Z,106.40
2018-02-21T22:23:25.031Z,96.77
2018-02-21T22:25:54.482Z,91.93
2018-02-21T22:28:23.175Z,92.60
2018-02-21T22:30:51.840Z,99.40
2018-02-21T22:33:20.247Z,98.30
2018-02-21T22:35:49.446Z,111.53
2018-02-21T22:38:18.142Z,102.40
2018-02-21T22:40:46.682Z,109.23
2018-02-21T22:43:15.093Z,91.77
2018-02-21T22:45:43.781Z,89.73
2018-02-21T22:48:12.526Z,86.60
2018-02-21T22:50:40.938Z,95.80
2018-02-21T22:53:09.365Z,105.10
2018-02-21T22:55:37.770Z,98.73
2018-02-21T22:58:06.471Z,82.25
2018-02-21T23:00:36.036Z,84.75
2018-02-21T23:03:04.482Z,85.50
2018-02-21T23:05:32.949Z,80.67
2018-02-21T23:08:01.646Z,87.53
2018-02-21T23:10:30.285Z,91.07
2018-02-21T23:12:58.777Z,78.27
2018-02-21T23:15:27.473Z,93.10
2018-02-21T23:17:56.211Z,80.72
2018-02-21T23:20:25.560Z,76.47
2018-02-21T23:22:54.324Z,82.57
2018-02-21T23:25:23.025Z,81.90
2018-02-21T23:27:51.704Z,89.43
2018-02-21T23:30:20.237Z,67.97
2018-02-21T23:32:50.372Z,81.77
2018-02-21T23:35:18.786Z,78.30
2018-02-21T23:37:48.291Z,74.80
2018-02-21T23:40:16.700Z,94.53
2018-02-21T23:42:45.903Z,80.13
2018-02-21T23:45:15.121Z,74.80
2018-02-21T23:47:44.483Z,77.23
2018-02-21T23:50:12.911Z,75.20
2018-02-21T23:52:42.023Z,78.60
2018-02-21T23:55:10.512Z,68.93
2018-02-21T23:57:39.822Z,73.27
